createdAt,value
2022-09-11T00:00:57.563Z,1.48
2022-09-11T00:02:06.290Z,1.17
2022-09-11T00:03:23.392Z,0.90
2022-09-11T00:04:33.578Z,1.27
2022-09-11T00:05:41.774Z,1.42
2022-09-11T00:06:45.394Z,1.20
2022-09-11T00:07:49.179Z,1.38
2022-09-11T00:09:01.652Z,1.20
2022-09-11T00:10:07.997Z,1.17
2022-09-11T00:11:18.591Z,1.17
2022-09-11T00:12:22.895Z,1.10
2022-09-11T00:13:26.847Z,1.13
2022-09-11T00:14:30.517Z,1.15
2022-09-11T00:15:43.729Z,1.33
2022-09-11T00:16:47.588Z,1.48
2022-09-11T00:17:51.511Z,1.27
2022-09-11T00:18:59.403Z,1.27
2022-09-11T00:20:04.852Z,1.52
2022-09-11T00:21:08.933Z,1.30
2022-09-11T00:22:12.410Z,1.48
2022-09-11T00:23:18.314Z,0.82
2022-09-11T00:24:21.966Z,1.20
2022-09-11T00:25:25.804Z,1.20
2022-09-11T00:26:35.855Z,1.80
2022-09-11T00:27:39.426Z,1.20
2022-09-11T00:28:47.022Z,1.00
2022-09-11T00:29:50.751Z,1.33
2022-09-11T00:31:05.451Z,1.35
2022-09-11T00:32:11.198Z,1.35
2022-09-11T00:33:18.883Z,1.27
2022-09-11T00:34:32.047Z,1.40
2022-09-11T00:35:36.311Z,1.58
2022-09-11T00:36:41.822Z,1.30
2022-09-11T00:37:45.540Z,1.23
2022-09-11T00:38:50.407Z,0.88
2022-09-11T00:39:54.670Z,1.23
2022-09-11T00:41:02.456Z,1.30
2022-09-11T00:42:06.853Z,1.35
2022-09-11T00:43:13.882Z,1.45
2022-09-11T00:44:18.532Z,1.40
2022-09-11T00:45:27.637Z,1.50
2022-09-11T00:46:43.390Z,1.10
2022-09-11T00:47:48.770Z,1.30
2022-09-11T00:48:56.150Z,1.38
2022-09-11T00:50:20.414Z,1.15
2022-09-11T00:51:33.892Z,1.20
2022-09-11T00:52:49.013Z,1.10
2022-09-11T00:53:58.676Z,1.30
2022-09-11T00:55:14.746Z,1.30
2022-09-11T00:56:22.794Z,1.17
2022-09-11T00:57:33.162Z,1.25
2022-09-11T00:58:42.806Z,1.20
2022-09-11T00:59:49.584Z,1.30
2022-09-11T01:00:57.124Z,1.77
2022-09-11T01:02:02.320Z,1.42
2022-09-11T01:03:06.222Z,1.30
2022-09-11T01:04:12.354Z,1.25
2022-09-11T01:05:17.625Z,1.48
2022-09-11T01:06:21.808Z,1.52
2022-09-11T01:07:29.330Z,1.60
2022-09-11T01:08:36.523Z,1.40
2022-09-11T01:09:43.252Z,1.20
2022-09-11T01:11:04.688Z,1.13
2022-09-11T01:12:36.313Z,1.20
2022-09-11T01:14:06.517Z,1.45
2022-09-11T01:15:23.694Z,1.52
2022-09-11T01:16:39.370Z,1.17
2022-09-11T01:18:31.793Z,1.40
2022-09-11T01:20:21.579Z,1.23
2022-09-11T01:22:07.855Z,0.95
2022-09-11T01:23:55.315Z,1.20
2022-09-11T01:25:38.209Z,1.30
2022-09-11T01:26:53.809Z,1.30
2022-09-11T01:28:06.638Z,1.38
2022-09-11T01:29:24.609Z,1.10
2022-09-11T01:30:43.319Z,1.45
2022-09-11T01:32:04.927Z,1.25
2022-09-11T01:33:34.547Z,1.15
2022-09-11T01:35:39.230Z,1.20
2022-09-11T01:36:54.147Z,1.00
2022-09-11T01:38:03.773Z,1.13
2022-09-11T01:39:07.769Z,1.10
2022-09-11T01:40:26.316Z,1.23
2022-09-11T01:41:53.306Z,1.20
2022-09-11T01:43:12.513Z,1.67
2022-09-11T01:44:50.469Z,1.40
2022-09-11T01:45:58.427Z,1.10
2022-09-11T01:47:07.067Z,1.02
2022-09-11T01:48:16.398Z,1.35
2022-09-11T01:49:56.065Z,1.00
2022-09-11T01:51:03.811Z,1.50
2022-09-11T01:52:19.657Z,1.20
2022-09-11T01:53:32.898Z,1.23
2022-09-11T01:54:56.373Z,1.20
2022-09-11T01:56:11.292Z,1.40
2022-09-11T01:57:37.810Z,0.93
2022-09-11T01:58:45.558Z,1.25
2022-09-11T01:59:57.976Z,1.30
2022-09-11T02:01:17.270Z,1.48
2022-09-11T02:02:33.399Z,1.13
2022-09-11T02:03:51.110Z,1.23
2022-09-11T02:05:09.893Z,1.00
2022-09-11T02:06:31.129Z,1.25
2022-09-11T02:08:17.630Z,1.20
2022-09-11T02:09:27.618Z,1.48
2022-09-11T02:10:40.919Z,1.23
2022-09-11T02:11:49.686Z,1.10
2022-09-11T02:13:28.783Z,1.20
2022-09-11T02:14:53.542Z,0.80
2022-09-11T02:16:20.264Z,1.05
2022-09-11T02:17:55.166Z,1.50
2022-09-11T02:19:14.087Z,1.45
2022-09-11T02:20:18.127Z,1.40
2022-09-11T02:21:21.885Z,1.20
2022-09-11T02:22:26.907Z,1.75
2022-09-11T02:23:30.567Z,1.20
2022-09-11T02:24:34.473Z,1.38
2022-09-11T02:25:38.206Z,1.13
2022-09-11T02:26:50.841Z,1.00
2022-09-11T02:27:55.117Z,1.23
2022-09-11T02:28:59.824Z,1.00
2022-09-11T02:30:03.916Z,1.40
2022-09-11T02:31:08.126Z,1.55
2022-09-11T02:32:12.404Z,1.40
2022-09-11T02:33:38.191Z,1.33
2022-09-11T02:34:45.976Z,1.70
2022-09-11T02:35:54.808Z,1.10
2022-09-11T02:37:20.654Z,1.63
2022-09-11T02:38:41.535Z,1.35
2022-09-11T02:40:39.074Z,0.90
2022-09-11T02:41:57.837Z,1.25
2022-09-11T02:43:28.741Z,1.23
2022-09-11T02:45:21.832Z,1.60
2022-09-11T02:47:09.759Z,1.20
2022-09-11T02:49:14.345Z,1.17
2022-09-11T02:50:41.749Z,1.13
2022-09-11T02:51:52.365Z,1.00
2022-09-11T02:53:14.531Z,0.95
2022-09-11T02:55:00.079Z,1.00
2022-09-11T02:56:16.597Z,1.23
2022-09-11T02:57:37.082Z,1.42
2022-09-11T02:58:56.586Z,1.33
2022-09-11T03:00:05.871Z,1.10
2022-09-11T03:01:10.303Z,1.20
2022-09-11T03:02:15.615Z,1.20
2022-09-11T03:03:20.845Z,1.38
2022-09-11T03:04:25.434Z,1.08
2022-09-11T03:05:29.285Z,1.17
2022-09-11T03:06:33.197Z,1.05
2022-09-11T03:07:37.273Z,1.20
2022-09-11T03:08:41.231Z,1.15
2022-09-11T03:09:44.988Z,1.20
2022-09-11T03:10:50.257Z,1.58
2022-09-11T03:11:55.213Z,1.10
2022-09-11T03:12:59.827Z,1.42
2022-09-11T03:14:03.333Z,1.75
2022-09-11T03:15:10.116Z,1.40
2022-09-11T03:16:14.092Z,1.00
2022-09-11T03:17:17.982Z,1.10
2022-09-11T03:18:21.594Z,1.27
2022-09-11T03:19:25.877Z,1.20
2022-09-11T03:20:29.365Z,1.40
2022-09-11T03:21:35.282Z,1.67
2022-09-11T03:22:39.865Z,1.17
2022-09-11T03:23:44.008Z,1.30
2022-09-11T03:24:48.280Z,1.60
2022-09-11T03:25:52.308Z,1.05
2022-09-11T03:26:56.062Z,1.23
2022-09-11T03:27:59.603Z,1.33
2022-09-11T03:29:04.712Z,1.20
2022-09-11T03:30:09.735Z,1.25
2022-09-11T03:31:14.089Z,1.30
2022-09-11T03:32:17.949Z,1.30
2022-09-11T03:33:21.444Z,1.55
2022-09-11T03:34:26.226Z,1.60
2022-09-11T03:35:30.008Z,1.23
2022-09-11T03:36:34.565Z,1.30
2022-09-11T03:37:38.530Z,1.30
2022-09-11T03:38:42.110Z,1.05
2022-09-11T03:39:45.854Z,1.35
2022-09-11T03:40:49.401Z,1.27
2022-09-11T03:41:54.321Z,1.55
2022-09-11T03:42:59.841Z,1.23
2022-09-11T03:44:03.600Z,1.20
2022-09-11T03:45:07.649Z,1.80
2022-09-11T03:46:11.621Z,0.60
2022-09-11T03:47:15.295Z,0.70
2022-09-11T03:48:20.108Z,0.65
2022-09-11T03:49:23.764Z,0.70
2022-09-11T03:50:28.103Z,0.60
2022-09-11T03:51:32.221Z,0.60
2022-09-11T03:52:36.326Z,0.60
2022-09-11T03:53:40.141Z,0.70
2022-09-11T03:54:43.740Z,0.60
2022-09-11T03:55:50.183Z,0.60
2022-09-11T03:56:53.829Z,0.77
2022-09-11T03:57:59.465Z,0.60
2022-09-11T03:59:03.941Z,0.70
2022-09-11T04:00:09.054Z,0.70
2022-09-11T04:01:15.874Z,0.60
2022-09-11T04:02:19.523Z,0.70
2022-09-11T04:03:23.094Z,0.65
2022-09-11T04:04:26.855Z,0.70
2022-09-11T04:05:30.694Z,0.60
2022-09-11T04:06:34.335Z,0.60
2022-09-11T04:07:38.697Z,0.60
2022-09-11T04:08:42.334Z,0.70
2022-09-11T04:09:46.685Z,0.60
2022-09-11T04:10:57.147Z,0.60
2022-09-11T04:12:00.729Z,0.70
2022-09-11T04:13:05.265Z,0.70
2022-09-11T04:14:08.935Z,0.70
2022-09-11T04:15:12.691Z,0.70
2022-09-11T04:16:19.606Z,0.70
2022-09-11T04:17:24.613Z,0.73
2022-09-11T04:18:32.544Z,0.70
2022-09-11T04:19:38.589Z,0.70
2022-09-11T04:20:42.366Z,0.73
2022-09-11T04:21:45.979Z,0.70
2022-09-11T04:22:50.033Z,0.60
2022-09-11T04:23:56.603Z,0.60
2022-09-11T04:25:00.461Z,0.60
2022-09-11T04:26:14.641Z,0.60
2022-09-11T04:27:19.163Z,0.50
2022-09-11T04:28:23.768Z,0.68
2022-09-11T04:29:28.827Z,0.60
2022-09-11T04:30:35.674Z,0.65
2022-09-11T04:31:41.465Z,0.65
2022-09-11T04:32:46.393Z,0.75
2022-09-11T04:33:50.461Z,0.70
2022-09-11T04:34:54.315Z,0.70
2022-09-11T04:35:57.787Z,0.70
2022-09-11T04:37:01.530Z,0.63
2022-09-11T04:38:05.097Z,0.60
2022-09-11T04:39:09.402Z,0.70
2022-09-11T04:40:12.943Z,0.70
2022-09-11T04:41:17.040Z,0.70
2022-09-11T04:42:24.607Z,0.60
2022-09-11T04:43:29.215Z,0.70
2022-09-11T04:44:32.840Z,0.70
2022-09-11T04:45:36.783Z,0.63
2022-09-11T04:46:41.188Z,0.70
2022-09-11T04:47:44.901Z,0.70
2022-09-11T04:48:52.269Z,0.70
2022-09-11T04:49:55.826Z,0.70
2022-09-11T04:51:08.623Z,0.70
2022-09-11T04:52:12.271Z,0.68
2022-09-11T04:53:15.985Z,0.60
2022-09-11T04:54:21.458Z,0.63
2022-09-11T04:55:26.012Z,0.70
2022-09-11T04:56:33.013Z,0.80
2022-09-11T04:57:36.581Z,0.70
2022-09-11T04:58:43.153Z,0.70
2022-09-11T04:59:48.692Z,0.80
2022-09-11T05:00:52.288Z,1.00
2022-09-11T05:01:55.965Z,0.70
2022-09-11T05:02:59.490Z,0.80
2022-09-11T05:04:03.359Z,0.80
2022-09-11T05:05:09.379Z,0.80
2022-09-11T05:06:16.762Z,0.80
2022-09-11T05:07:20.333Z,0.70
2022-09-11T05:08:26.822Z,0.70
2022-09-11T05:09:30.600Z,0.80
2022-09-11T05:10:39.054Z,0.77
2022-09-11T05:11:43.258Z,0.70
2022-09-11T05:12:47.216Z,0.70
2022-09-11T05:13:50.717Z,0.75
2022-09-11T05:14:54.457Z,0.70
2022-09-11T05:16:05.802Z,0.70
2022-09-11T05:17:10.258Z,0.70
2022-09-11T05:18:13.778Z,0.70
2022-09-11T05:19:17.325Z,0.80
2022-09-11T05:20:21.011Z,0.70
2022-09-11T05:21:26.896Z,0.70
2022-09-11T05:22:30.727Z,0.70
2022-09-11T05:23:34.857Z,0.70
2022-09-11T05:24:39.580Z,0.70
2022-09-11T05:25:43.426Z,0.80
2022-09-11T05:26:46.937Z,0.80
2022-09-11T05:27:50.508Z,0.70
2022-09-11T05:28:58.973Z,0.80
2022-09-11T05:30:03.166Z,0.60
2022-09-11T05:31:17.298Z,0.75
2022-09-11T05:32:21.083Z,0.77
2022-09-11T05:33:26.949Z,0.60
2022-09-11T05:34:30.738Z,0.70
2022-09-11T05:35:34.438Z,0.75
2022-09-11T05:36:38.288Z,0.70
2022-09-11T05:37:41.759Z,0.70
2022-09-11T05:38:45.964Z,0.60
2022-09-11T05:39:49.557Z,0.60
2022-09-11T05:40:53.105Z,0.70
2022-09-11T05:41:56.865Z,0.70
2022-09-11T05:43:00.386Z,0.70
2022-09-11T05:44:04.189Z,0.70
2022-09-11T05:45:08.369Z,0.63
2022-09-11T05:46:15.608Z,0.70
2022-09-11T05:47:19.568Z,0.73
2022-09-11T05:48:23.974Z,0.68
2022-09-11T05:49:27.539Z,0.60
2022-09-11T05:50:32.855Z,0.70
2022-09-11T05:51:37.870Z,0.70
2022-09-11T05:52:41.866Z,0.70
2022-09-11T05:53:46.711Z,0.65
2022-09-11T05:54:50.414Z,0.65
2022-09-11T05:55:55.317Z,0.68
2022-09-11T05:56:58.924Z,0.68
2022-09-11T05:58:02.953Z,0.80
2022-09-11T05:59:15.885Z,0.80
2022-09-11T06:00:20.846Z,0.70
2022-09-11T06:01:28.526Z,0.65
2022-09-11T06:02:32.319Z,0.70
2022-09-11T06:03:38.989Z,0.70
2022-09-11T06:04:42.719Z,0.70
2022-09-11T06:05:46.205Z,0.60
2022-09-11T06:06:50.312Z,0.70
2022-09-11T06:07:54.369Z,0.88
2022-09-11T06:08:58.392Z,0.70
2022-09-11T06:10:03.347Z,0.60
2022-09-11T06:11:08.393Z,0.68
2022-09-11T06:12:12.759Z,0.60
2022-09-11T06:13:19.329Z,0.70
2022-09-11T06:14:23.340Z,0.60
2022-09-11T06:15:45.536Z,0.60
2022-09-11T06:16:50.049Z,0.70
2022-09-11T06:17:53.727Z,0.70
2022-09-11T06:18:57.750Z,0.60
2022-09-11T06:20:01.881Z,0.60
2022-09-11T06:21:11.464Z,0.60
2022-09-11T06:22:15.203Z,0.70
2022-09-11T06:23:18.991Z,0.60
2022-09-11T06:24:22.548Z,0.73
2022-09-11T06:25:26.765Z,0.60
2022-09-11T06:26:30.309Z,0.80
2022-09-11T06:27:34.122Z,0.60
2022-09-11T06:28:40.137Z,0.70
2022-09-11T06:29:44.998Z,0.60
2022-09-11T06:30:53.327Z,0.70
2022-09-11T06:31:56.963Z,0.60
2022-09-11T06:33:00.458Z,0.50
2022-09-11T06:34:04.305Z,0.60
2022-09-11T06:35:08.492Z,0.63
2022-09-11T06:36:19.913Z,0.50
2022-09-11T06:37:23.813Z,0.60
2022-09-11T06:38:28.494Z,0.50
2022-09-11T06:39:32.065Z,0.50
2022-09-11T06:40:38.239Z,0.60
2022-09-11T06:41:42.291Z,0.63
2022-09-11T06:42:46.189Z,0.60
2022-09-11T06:43:49.712Z,0.65
2022-09-11T06:44:53.197Z,0.50
2022-09-11T06:46:04.278Z,0.60
2022-09-11T06:47:08.063Z,0.50
2022-09-11T06:48:12.119Z,0.75
2022-09-11T06:49:16.339Z,0.60
2022-09-11T06:50:19.824Z,0.60
2022-09-11T06:51:24.221Z,0.60
2022-09-11T06:52:28.420Z,0.60
2022-09-11T06:53:32.274Z,0.60
2022-09-11T06:54:35.887Z,0.70
2022-09-11T06:55:40.608Z,0.60
2022-09-11T06:56:45.309Z,0.60
2022-09-11T06:57:49.892Z,0.70
2022-09-11T06:58:53.779Z,0.60
2022-09-11T07:00:00.139Z,0.65
2022-09-11T07:01:06.433Z,0.60
2022-09-11T07:02:10.588Z,0.70
2022-09-11T07:03:15.364Z,0.60
2022-09-11T07:04:19.042Z,0.60
2022-09-11T07:05:23.454Z,0.73
2022-09-11T07:06:30.417Z,0.60
2022-09-11T07:07:34.224Z,0.70
2022-09-11T07:08:39.653Z,0.63
2022-09-11T07:09:43.195Z,0.60
2022-09-11T07:10:46.881Z,0.60
2022-09-11T07:11:50.894Z,0.70
2022-09-11T07:12:55.985Z,0.70
2022-09-11T07:14:01.719Z,0.63
2022-09-11T07:15:07.750Z,0.60
2022-09-11T07:16:14.552Z,0.60
2022-09-11T07:17:19.021Z,0.60
2022-09-11T07:18:22.457Z,0.70
2022-09-11T07:19:26.437Z,0.63
2022-09-11T07:20:30.053Z,0.77
2022-09-11T07:21:34.611Z,0.70
2022-09-11T07:22:39.185Z,0.60
2022-09-11T07:23:46.626Z,0.60
2022-09-11T07:24:52.750Z,0.60
2022-09-11T07:25:56.243Z,0.60
2022-09-11T07:27:00.962Z,0.50
2022-09-11T07:28:05.394Z,0.60
2022-09-11T07:29:09.032Z,0.55
2022-09-11T07:30:14.016Z,0.70
2022-09-11T07:31:35.471Z,0.60
2022-09-11T07:32:39.160Z,0.60
2022-09-11T07:33:48.935Z,0.50
2022-09-11T07:34:52.582Z,0.60
2022-09-11T07:35:56.324Z,0.60
2022-09-11T07:36:59.963Z,0.60
2022-09-11T07:38:03.447Z,0.57
2022-09-11T07:39:07.298Z,0.60
2022-09-11T07:40:11.221Z,0.60
2022-09-11T07:41:18.768Z,0.70
2022-09-11T07:42:23.486Z,0.60
2022-09-11T07:43:27.384Z,0.60
2022-09-11T07:44:30.932Z,0.60
2022-09-11T07:45:34.559Z,0.73
2022-09-11T07:46:41.707Z,0.60
2022-09-11T07:47:45.343Z,0.57
2022-09-11T07:48:49.215Z,0.70
2022-09-11T07:49:52.692Z,0.55
2022-09-11T07:51:05.529Z,0.60
2022-09-11T07:52:12.641Z,0.60
2022-09-11T07:53:19.737Z,0.60
2022-09-11T07:54:23.409Z,0.65
2022-09-11T07:55:26.930Z,0.55
2022-09-11T07:56:31.248Z,0.60
2022-09-11T07:57:35.307Z,0.60
2022-09-11T07:58:42.934Z,0.60
2022-09-11T07:59:46.652Z,0.60
2022-09-11T08:00:58.179Z,0.60
2022-09-11T08:02:02.646Z,0.60
2022-09-11T08:03:07.286Z,0.68
2022-09-11T08:04:14.458Z,0.60
2022-09-11T08:05:18.807Z,0.60
2022-09-11T08:06:24.011Z,0.70
2022-09-11T08:07:27.639Z,0.60
2022-09-11T08:08:33.223Z,0.60
2022-09-11T08:09:37.113Z,0.60
2022-09-11T08:10:41.086Z,0.60
2022-09-11T08:11:48.981Z,0.50
2022-09-11T08:12:56.821Z,0.60
2022-09-11T08:14:03.162Z,0.77
2022-09-11T08:15:10.867Z,0.70
2022-09-11T08:16:14.674Z,0.60
2022-09-11T08:17:18.230Z,0.60
2022-09-11T08:18:21.757Z,0.70
2022-09-11T08:19:25.648Z,0.70
2022-09-11T08:20:29.387Z,0.60
2022-09-11T08:21:33.489Z,0.70
2022-09-11T08:22:37.811Z,0.70
2022-09-11T08:23:44.292Z,0.60
2022-09-11T08:24:48.749Z,0.68
2022-09-11T08:25:54.024Z,0.60
2022-09-11T08:26:57.982Z,0.60
2022-09-11T08:28:01.771Z,0.60
2022-09-11T08:29:05.932Z,0.70
2022-09-11T08:30:11.786Z,0.80
2022-09-11T08:31:15.633Z,0.60
2022-09-11T08:32:20.622Z,0.60
2022-09-11T08:33:24.770Z,0.60
2022-09-11T08:34:28.269Z,0.60
2022-09-11T08:35:34.505Z,0.80
2022-09-11T08:36:38.715Z,0.60
2022-09-11T08:37:43.340Z,0.60
2022-09-11T08:38:48.349Z,0.60
2022-09-11T08:39:52.039Z,0.70
2022-09-11T08:40:59.255Z,0.60
2022-09-11T08:42:16.646Z,0.70
2022-09-11T08:43:31.670Z,0.60
2022-09-11T08:44:58.906Z,0.63
2022-09-11T08:46:10.990Z,0.57
2022-09-11T08:47:22.312Z,0.70
2022-09-11T08:49:02.452Z,0.60
2022-09-11T08:50:18.372Z,0.60
2022-09-11T08:51:22.293Z,0.70
2022-09-11T08:52:26.285Z,0.60
2022-09-11T08:53:33.385Z,0.60
2022-09-11T08:54:41.126Z,0.65
2022-09-11T08:56:00.467Z,0.60
2022-09-11T08:57:37.977Z,0.60
2022-09-11T08:59:24.028Z,0.50
2022-09-11T09:00:51.597Z,0.60
2022-09-11T09:02:39.322Z,0.60
2022-09-11T09:04:13.988Z,0.60
2022-09-11T09:05:28.491Z,0.60
2022-09-11T09:06:53.427Z,0.50
2022-09-11T09:08:35.537Z,0.73
2022-09-11T09:10:31.460Z,0.70
2022-09-11T09:12:17.019Z,0.80
2022-09-11T09:14:07.043Z,0.60
2022-09-11T09:16:02.636Z,0.60
2022-09-11T09:17:25.225Z,0.60
2022-09-11T09:18:38.616Z,0.50
2022-09-11T09:20:01.444Z,0.60
2022-09-11T09:21:16.096Z,0.50
2022-09-11T09:22:33.539Z,0.50
2022-09-11T09:23:47.084Z,0.50
2022-09-11T09:25:00.112Z,0.55
2022-09-11T09:26:04.131Z,0.50
2022-09-11T09:27:17.934Z,0.60
2022-09-11T09:28:25.835Z,0.50
2022-09-11T09:29:38.456Z,0.60
2022-09-11T09:30:56.638Z,0.50
2022-09-11T09:32:16.175Z,0.60
2022-09-11T09:33:59.290Z,0.60
2022-09-11T09:35:15.659Z,0.50
2022-09-11T09:36:28.396Z,0.50
2022-09-11T09:37:32.247Z,0.60
2022-09-11T09:38:36.144Z,0.50
2022-09-11T09:39:40.586Z,0.50
2022-09-11T09:41:16.547Z,0.50
2022-09-11T09:42:57.337Z,0.50
2022-09-11T09:44:19.832Z,0.50
2022-09-11T09:45:52.357Z,0.60
2022-09-11T09:46:56.659Z,0.50
2022-09-11T09:48:01.503Z,0.50
2022-09-11T09:49:05.325Z,0.60
2022-09-11T09:50:25.678Z,0.50
2022-09-11T09:51:29.601Z,0.50
2022-09-11T09:52:36.192Z,0.50
2022-09-11T09:53:50.831Z,0.50
2022-09-11T09:55:04.102Z,0.60
2022-09-11T09:56:13.121Z,0.50
2022-09-11T09:57:18.720Z,0.60
2022-09-11T09:58:30.834Z,0.50
2022-09-11T09:59:49.974Z,0.60
2022-09-11T10:00:53.627Z,0.60
2022-09-11T10:01:58.822Z,0.50
2022-09-11T10:03:22.860Z,0.50
2022-09-11T10:04:30.663Z,0.60
2022-09-11T10:05:42.355Z,0.50
2022-09-11T10:06:49.621Z,0.50
2022-09-11T10:07:57.593Z,0.70
2022-09-11T10:09:03.433Z,0.50
2022-09-11T10:10:26.995Z,0.60
2022-09-11T10:11:31.475Z,0.50
2022-09-11T10:12:36.276Z,0.60
2022-09-11T10:13:54.685Z,0.50
2022-09-11T10:15:03.350Z,0.50
2022-09-11T10:16:25.854Z,0.50
2022-09-11T10:17:29.829Z,0.45
2022-09-11T10:18:43.131Z,0.50
2022-09-11T10:19:46.884Z,0.50
2022-09-11T10:20:51.851Z,0.50
2022-09-11T10:22:27.546Z,0.50
2022-09-11T10:23:44.289Z,0.57
2022-09-11T10:25:21.861Z,0.50
2022-09-11T10:26:30.065Z,0.50
2022-09-11T10:27:46.660Z,0.60
2022-09-11T10:28:53.951Z,0.60
2022-09-11T10:29:59.125Z,0.60
2022-09-11T10:31:05.161Z,0.57
2022-09-11T10:32:18.378Z,0.63
2022-09-11T10:33:40.115Z,0.57
2022-09-11T10:34:44.136Z,0.50
2022-09-11T10:35:56.696Z,0.50
2022-09-11T10:37:21.375Z,0.50
2022-09-11T10:38:45.918Z,0.50
2022-09-11T10:39:51.251Z,0.50
2022-09-11T10:41:19.702Z,0.50
2022-09-11T10:42:29.137Z,0.50
2022-09-11T10:43:47.446Z,0.50
2022-09-11T10:44:54.973Z,0.40
2022-09-11T10:46:23.222Z,0.50
2022-09-11T10:47:33.303Z,0.40
2022-09-11T10:48:42.361Z,0.43
2022-09-11T10:49:47.295Z,0.45
2022-09-11T10:51:07.765Z,0.50
2022-09-11T10:52:11.211Z,0.45
2022-09-11T10:53:23.443Z,0.50
2022-09-11T10:54:53.352Z,0.50
2022-09-11T10:56:06.012Z,0.52
2022-09-11T10:57:43.366Z,0.50
2022-09-11T10:58:55.174Z,0.50
2022-09-11T11:00:31.085Z,0.50
2022-09-11T11:01:34.802Z,0.50
2022-09-11T11:02:45.248Z,0.50
2022-09-11T11:03:49.371Z,0.50
2022-09-11T11:04:53.026Z,0.55
2022-09-11T11:07:05.147Z,0.40
2022-09-11T11:08:29.511Z,0.60
2022-09-11T11:10:03.369Z,0.50
2022-09-11T11:11:27.550Z,0.50
2022-09-11T11:12:53.345Z,0.50
2022-09-11T11:14:57.162Z,0.50
2022-09-11T11:16:50.315Z,0.57
2022-09-11T11:18:29.219Z,0.50
2022-09-11T11:20:16.326Z,0.60
2022-09-11T11:21:37.899Z,0.50
2022-09-11T11:23:16.433Z,0.60
2022-09-11T11:25:00.221Z,0.50
2022-09-11T11:26:28.335Z,0.50
2022-09-11T11:27:51.401Z,0.60
2022-09-11T11:29:56.950Z,0.50
2022-09-11T11:31:12.629Z,0.50
2022-09-11T11:32:35.652Z,0.50
2022-09-11T11:34:12.022Z,0.50
2022-09-11T11:35:44.919Z,0.50
2022-09-11T11:37:18.175Z,0.45
2022-09-11T11:38:51.319Z,0.60
2022-09-11T11:40:05.423Z,0.50
2022-09-11T11:41:35.613Z,0.65
2022-09-11T11:42:56.509Z,0.60
2022-09-11T11:44:06.790Z,0.50
2022-09-11T11:45:32.144Z,0.50
2022-09-11T11:46:54.362Z,0.50
2022-09-11T11:48:02.102Z,0.50
2022-09-11T11:49:25.563Z,0.50
2022-09-11T11:50:44.888Z,0.50
2022-09-11T11:52:43.270Z,0.60
2022-09-11T11:54:21.794Z,0.60
2022-09-11T11:55:33.224Z,0.60
2022-09-11T11:56:50.534Z,0.50
2022-09-11T11:58:22.873Z,0.50
2022-09-11T11:59:54.446Z,0.57
2022-09-11T12:01:04.653Z,0.50
2022-09-11T12:02:10.900Z,0.50
2022-09-11T12:03:23.843Z,0.50
2022-09-11T12:05:03.461Z,0.60
2022-09-11T12:06:08.918Z,0.50
2022-09-11T12:07:32.693Z,0.50
2022-09-11T12:08:46.923Z,0.60
2022-09-11T12:09:54.893Z,0.60
2022-09-11T12:11:06.500Z,0.52
2022-09-11T12:12:13.148Z,0.50
2022-09-11T12:13:20.659Z,0.60
2022-09-11T12:14:34.581Z,0.60
2022-09-11T12:15:38.563Z,0.40
2022-09-11T12:16:44.432Z,0.55
2022-09-11T12:18:02.471Z,0.60
2022-09-11T12:19:14.591Z,0.50
2022-09-11T12:20:41.897Z,0.50
2022-09-11T12:21:54.829Z,0.55
2022-09-11T12:22:59.015Z,0.50
2022-09-11T12:24:02.908Z,0.50
2022-09-11T12:25:29.074Z,0.50
2022-09-11T12:26:32.713Z,0.50
2022-09-11T12:27:36.655Z,0.50
2022-09-11T12:28:41.122Z,0.50
2022-09-11T12:30:16.217Z,0.50
2022-09-11T12:31:19.775Z,0.50
2022-09-11T12:32:59.167Z,0.55
2022-09-11T12:34:02.906Z,0.50
2022-09-11T12:35:32.555Z,0.50
2022-09-11T12:37:05.465Z,0.50
2022-09-11T12:38:09.199Z,0.60
2022-09-11T12:39:27.728Z,0.50
2022-09-11T12:40:49.025Z,0.55
2022-09-11T12:41:53.649Z,0.50
2022-09-11T12:43:19.188Z,0.50
2022-09-11T12:44:48.670Z,0.50
2022-09-11T12:45:52.464Z,0.50
2022-09-11T12:46:58.698Z,0.50
2022-09-11T12:48:12.494Z,0.45
2022-09-11T12:49:23.167Z,0.47
2022-09-11T12:50:29.032Z,0.50
2022-09-11T12:51:41.429Z,0.40
2022-09-11T12:52:57.232Z,0.50
2022-09-11T12:54:12.515Z,0.50
2022-09-11T12:55:28.473Z,0.50
2022-09-11T12:56:35.011Z,0.50
2022-09-11T12:57:41.033Z,0.50
2022-09-11T12:58:51.990Z,0.50
2022-09-11T13:00:03.807Z,0.63
2022-09-11T13:01:10.682Z,0.50
2022-09-11T13:02:57.992Z,0.50
2022-09-11T13:04:12.441Z,0.60
2022-09-11T13:05:34.569Z,0.50
2022-09-11T13:06:47.631Z,0.47
2022-09-11T13:08:10.616Z,0.50
2022-09-11T13:09:28.687Z,0.50
2022-09-11T13:10:39.570Z,0.50
2022-09-11T13:11:49.556Z,0.50
2022-09-11T13:12:55.988Z,0.50
2022-09-11T13:14:00.275Z,0.43
2022-09-11T13:15:05.238Z,0.70
2022-09-11T13:16:26.620Z,0.40
2022-09-11T13:17:49.292Z,0.40
2022-09-11T13:19:10.469Z,0.50
2022-09-11T13:20:23.266Z,0.40
2022-09-11T13:21:26.843Z,0.50
2022-09-11T13:22:31.385Z,0.43
2022-09-11T13:23:35.003Z,0.45
2022-09-11T13:24:39.380Z,0.40
2022-09-11T13:25:43.004Z,0.45
2022-09-11T13:26:46.639Z,0.50
2022-09-11T13:27:57.563Z,0.40
2022-09-11T13:29:01.971Z,0.40
2022-09-11T13:30:17.416Z,0.50
2022-09-11T13:31:35.789Z,0.50
2022-09-11T13:32:39.718Z,0.50
2022-09-11T13:33:49.351Z,0.40
2022-09-11T13:35:02.516Z,0.50
2022-09-11T13:36:07.381Z,0.50
2022-09-11T13:37:46.966Z,0.43
2022-09-11T13:39:01.733Z,0.50
2022-09-11T13:40:08.282Z,0.50
2022-09-11T13:41:22.352Z,0.50
2022-09-11T13:42:26.336Z,0.55
2022-09-11T13:43:46.035Z,0.50
2022-09-11T13:44:59.391Z,0.50
2022-09-11T13:46:15.087Z,0.50
2022-09-11T13:47:28.386Z,0.50
2022-09-11T13:57:18.270Z,0.50
2022-09-11T13:58:32.973Z,0.50
2022-09-11T13:59:49.478Z,0.50
2022-09-11T14:00:55.635Z,0.50
2022-09-11T14:02:01.408Z,0.50
2022-09-11T14:03:22.856Z,0.50
2022-09-11T14:04:33.305Z,0.40
2022-09-11T14:05:37.076Z,0.52
2022-09-11T14:06:46.815Z,0.60
2022-09-11T14:07:53.234Z,0.50
2022-09-11T14:08:57.774Z,0.50
2022-09-11T14:10:16.222Z,0.50
2022-09-11T14:11:32.102Z,0.60
2022-09-11T14:12:51.862Z,0.50
2022-09-11T14:14:16.135Z,0.50
2022-09-11T14:16:00.326Z,0.50
2022-09-11T14:17:57.217Z,0.45
2022-09-11T14:21:56.022Z,0.50
2022-09-11T14:23:12.872Z,0.50
2022-09-11T14:24:35.926Z,0.50
2022-09-11T14:26:05.726Z,0.50
2022-09-11T14:27:31.469Z,0.50
2022-09-11T14:28:58.190Z,0.60
2022-09-11T14:30:34.832Z,0.40
2022-09-11T14:31:44.645Z,0.40
2022-09-11T14:32:48.457Z,0.50
2022-09-11T14:34:11.073Z,0.50
2022-09-11T14:35:25.946Z,0.50
2022-09-11T14:36:31.254Z,0.50
2022-09-11T14:37:45.244Z,0.50
2022-09-11T14:38:51.522Z,0.50
2022-09-11T14:40:04.102Z,0.45
2022-09-11T14:41:30.100Z,0.50
2022-09-11T14:43:09.494Z,0.50
2022-09-11T14:44:47.709Z,0.50
2022-09-11T14:46:31.889Z,0.60
2022-09-11T14:48:14.833Z,0.57
2022-09-11T14:57:24.353Z,0.50
2022-09-11T14:58:37.853Z,0.50
2022-09-11T14:59:55.543Z,0.50
2022-09-11T15:01:41.517Z,0.50
2022-09-11T15:02:48.954Z,0.50
2022-09-11T15:03:54.846Z,0.60
2022-09-11T15:04:59.064Z,0.50
2022-09-11T15:06:05.936Z,0.50
2022-09-11T15:07:14.500Z,0.60
2022-09-11T15:08:18.807Z,0.50
2022-09-11T15:09:24.683Z,0.50
2022-09-11T15:10:29.673Z,0.50
2022-09-11T15:11:38.795Z,0.50
2022-09-11T15:12:47.379Z,0.50
2022-09-11T15:14:14.489Z,0.60
2022-09-11T15:15:17.901Z,0.50
2022-09-11T15:16:21.889Z,0.57
2022-09-11T15:17:31.769Z,0.60
2022-09-11T15:18:38.734Z,0.50
2022-09-11T15:19:46.087Z,0.60
2022-09-11T15:20:50.081Z,0.60
2022-09-11T15:21:56.749Z,0.50
2022-09-11T15:23:12.457Z,0.50
2022-09-11T15:24:17.260Z,0.60
2022-09-11T15:25:22.746Z,0.60
2022-09-11T15:26:32.405Z,0.50
2022-09-11T15:27:36.266Z,0.50
2022-09-11T15:28:40.506Z,0.60
2022-09-11T15:29:45.323Z,0.50
2022-09-11T15:30:59.026Z,0.50
2022-09-11T15:32:07.659Z,0.50
2022-09-11T15:33:11.415Z,0.57
2022-09-11T15:34:22.707Z,0.50
2022-09-11T15:35:32.638Z,0.50
2022-09-11T15:36:40.562Z,0.50
2022-09-11T15:37:46.716Z,0.50
2022-09-11T15:38:54.937Z,0.60
2022-09-11T15:40:02.389Z,0.60
2022-09-11T15:41:06.938Z,0.50
2022-09-11T15:42:12.641Z,0.50
2022-09-11T15:43:16.673Z,0.60
2022-09-11T15:44:25.699Z,0.50
2022-09-11T15:45:29.538Z,0.50
2022-09-11T15:46:33.295Z,0.50
2022-09-11T15:47:37.214Z,0.50
2022-09-11T15:48:41.570Z,0.55
2022-09-11T15:49:49.997Z,0.60
2022-09-11T15:51:01.396Z,0.50
2022-09-11T15:52:05.627Z,0.50
2022-09-11T15:53:15.178Z,0.50
2022-09-11T15:54:20.769Z,0.68
2022-09-11T15:55:26.817Z,0.50
2022-09-11T15:56:30.620Z,0.50
2022-09-11T15:57:34.721Z,0.60
2022-09-11T15:58:45.131Z,0.50
2022-09-11T15:59:50.364Z,0.50
2022-09-11T16:00:55.926Z,0.50
2022-09-11T16:02:00.417Z,0.57
2022-09-11T16:03:05.309Z,0.60
2022-09-11T16:04:22.159Z,0.60
2022-09-11T16:05:26.037Z,0.55
2022-09-11T16:06:39.088Z,0.70
2022-09-11T16:07:42.765Z,0.60
2022-09-11T16:08:48.117Z,0.50
2022-09-11T16:09:52.922Z,0.50
2022-09-11T16:10:56.615Z,0.60
2022-09-11T16:12:02.070Z,0.50
2022-09-11T16:13:05.839Z,0.50